• Join FlightAware (Why Join?)
  • Login
  • US Flag 
11:37AM EDT


 

Airport Tracker/Info


-or-


 

Live Flight TrackerFlight Track Log ✈ UCA3598 ✈ 19-Sep-2013 ✈ KIAD - KBGM

Flight Track Log - Related Links

Times and Time Zones

All times are in EDT time to prevent confusion due to time zone crossing. See the UCA3598 flight status page for this flight to view local times or setup timezone preferences in your user account.

Time Position Orientation Groundspeed Altitude Reporting Facility
EDT Latitude Longitude Course Direction KTS MPH feet Rate Location/Type
10:22PM 38.9500 -77.5000 293° West 136 157 1,800  Level Potomac TRACON
10:22PM 38.9667 -77.5500 293° West 178 205 2,900 1,500 Climbing Potomac TRACON
10:24PM 38.9667 -77.6167 270° West 191 220 4,700 1,800 Climbing Potomac TRACON
10:24PM 38.9833 -77.6667 293° West 190 219 6,500 1,320 Climbing Potomac TRACON
10:26PM 39.0575 -77.7006 340° North 207 238 7,700 1,200 Climbing Washington Center
10:27PM 39.1156 -77.7131 351° North 212 244 9,400 1,560 Climbing Washington Center
10:28PM 39.1717 -77.7281 348° North 207 238 10,900 1,440 Climbing Washington Center
10:29PM 39.2236 -77.7403 350° North 201 231 12,400 1,320 Climbing Washington Center
10:30PM 39.2817 -77.7528 351° North 201 231 13,700 780 Climbing Washington Center
10:31PM 39.3397 -77.7678 349° North 201 231 14,000 120 Climbing Washington Center
10:32PM 39.4103 -77.7861 349° North 227 261 14,000  Level Washington Center
10:33PM 39.4850 -77.8044 349° North 254 292 14,000  Level Washington Center
10:34PM 39.5597 -77.8231 349° North 265 305 14,000  Level Washington Center
10:35PM 39.6344 -77.8389 351° North 265 305 14,000 600 Level Washington Center
10:36PM 39.7308 -77.8358 North 268 308 15,600 1,140 Climbing New York Center
10:37PM 39.7772 -77.7919 36° Northeast 224 258 16,900 720 Climbing New York Center
10:38PM 39.8258 -77.7481 35° Northeast 209 241 17,100 60 Climbing New York Center
10:39PM 39.8883 -77.7136 23° Northeast 223 257 17,100 -60 Level New York Center
10:40PM 39.9533 -77.6714 26° Northeast 233 268 17,000  Descending New York Center
10:41PM 40.0183 -77.6317 25° Northeast 244 281 17,100  Climbing New York Center
10:42PM 40.0856 -77.5867 27° Northeast 255 293 17,000 -60 Descending New York Center
10:43PM 40.1569 -77.5422 25° Northeast 260 299 17,000  Level New York Center
10:44PM 40.2175 -77.5044 25° Northeast 260 299 17,100 60 Climbing New York Center
10:46PM 40.2884 -77.4559 28° Northeast  Level FlightAware Approximate
10:53PM 40.6988 -77.1817 26° Northeast  Level FlightAware Approximate
10:54PM 40.7577 -77.1430 26° Northeast  Level FlightAware Approximate
10:55PM 40.8166 -77.1043 26° Northeast  Level FlightAware Approximate
10:56PM 40.8754 -77.0655 26° Northeast  Level FlightAware Approximate
10:57PM 40.9342 -77.0266 27° Northeast  Level FlightAware Approximate
10:58PM 40.9931 -76.9877 27° Northeast  Level FlightAware Approximate
10:59PM 41.0519 -76.9487 27° Northeast  Level FlightAware Approximate
11:00PM 41.1107 -76.9097 27° Northeast  Level FlightAware Approximate
11:01PM 41.1695 -76.8705 27° Northeast  Level FlightAware Approximate
11:02PM 41.2282 -76.8313 27° Northeast  Level FlightAware Approximate
11:03PM 41.2870 -76.7920 27° Northeast  Level FlightAware Approximate
11:04PM 41.3471 -76.7569 28° Northeast  Level FlightAware Approximate
11:05PM 41.4050 -76.7155 28° Northeast  Level FlightAware Approximate
11:06PM 41.4618 -76.6715 37° Northeast  Level FlightAware Approximate
11:07PM 41.5169 -76.6249 21° North  Level FlightAware Approximate
11:08PM 41.5742 -76.5826 32° Northeast  Level FlightAware Approximate
11:09PM 41.6300 -76.5361 32° Northeast  Level FlightAware Approximate
11:10PM 41.6859 -76.4896 32° Northeast  Level FlightAware Approximate
11:11PM 41.7421 -76.4441 26° Northeast  Level FlightAware Approximate
11:12PM 41.8000 -76.4024 33° Northeast  Level FlightAware Approximate
11:13PM 41.8554 -76.3549 33° Northeast  Level FlightAware Approximate
11:14PM 41.9112 -76.3083 29° Northeast  Level FlightAware Approximate
11:15PM 41.9686 -76.2651 30° Northeast  Level FlightAware Approximate
11:16PM 42.0256 -76.2209 30° Northeast  Level FlightAware Approximate
11:17PM 42.0825 -76.1766 30° Northeast  Level FlightAware Approximate
11:18PM 42.1413 -76.1377 20° North  Level FlightAware Approximate
11:19PM 42.1718 -76.0652 69° East  Level FlightAware Approximate
11:20PM 42.1955 -75.9824 69° East  Level FlightAware Approximate
11:21PM 42.2000 -75.9667 North  Level FlightAware Approximate
11:22PM 42.2084 -75.9796 North  Level Estimated
11:23PM 42.2084 -75.9796 North  Level Estimated
11:24PM 42.2084 -75.9796 North  Level Estimated
11:25PM 42.2084 -75.9796 North  Level Estimated
11:26PM 42.2084 -75.9796 North  Level Estimated
11:27PM 42.2084 -75.9796 North  Level Estimated
11:28PM 42.2084 -75.9796 North  Level Estimated
11:29PM 42.2084 -75.9796 North  Level Estimated
11:30PM 42.2084 -75.9796 North  Level Estimated